Time,TemperatureF,DewpointF,PressureIn,WindDirection,WindDirectionDegrees,WindSpeedMPH,WindSpeedGustMPH,Humidity,HourlyPrecipIn,Conditions,Clouds,dailyrainin,SolarRadiationWatts/m^2,SoftwareType,DateUTC
2013-05-24 00:01:00,45.0,43.0,30.01,NW,323,0.0,2.0,93,0.00,,,0.00,0.0,meteohub,2013-05-24 07:01:00,
2013-05-24 00:06:00,44.8,42.8,30.01,NW,323,0.0,2.0,93,0.00,,,0.00,0.0,meteohub,2013-05-24 07:06:00,
2013-05-24 00:11:00,44.8,42.8,30.01,NW,323,0.0,2.0,93,0.00,,,0.00,0.0,meteohub,2013-05-24 07:11:00,
2013-05-24 00:16:00,44.8,42.8,30.00,NW,323,0.0,2.0,93,0.00,,,0.00,0.0,meteohub,2013-05-24 07:16:00,
2013-05-24 00:21:00,44.6,42.6,30.00,NW,323,0.0,0.0,93,0.00,,,0.00,0.0,meteohub,2013-05-24 07:21:00,
2013-05-24 00:26:00,44.6,42.6,30.01,NW,323,0.0,1.0,93,0.00,,,0.00,0.0,meteohub,2013-05-24 07:26:00,
2013-05-24 00:31:00,44.6,42.6,30.01,NW,323,0.0,1.0,93,0.00,,,0.00,0.0,meteohub,2013-05-24 07:31:00,
2013-05-24 00:36:00,44.4,42.4,30.01,NW,323,0.0,1.0,93,0.00,,,0.00,0.0,meteohub,2013-05-24 07:36:00,
2013-05-24 00:41:00,44.4,42.4,30.01,NW,323,0.0,1.0,93,0.00,,,0.00,0.0,meteohub,2013-05-24 07:41:00,
2013-05-24 00:46:00,44.4,42.4,30.00,NW,323,0.0,1.0,93,0.00,,,0.00,0.0,meteohub,2013-05-24 07:46:00,
2013-05-24 00:51:00,44.2,42.6,30.01,NW,323,0.0,1.0,94,0.00,,,0.00,0.0,meteohub,2013-05-24 07:51:00,
2013-05-24 00:56:00,44.2,42.6,30.00,NW,323,0.0,1.0,94,0.00,,,0.00,0.0,meteohub,2013-05-24 07:56:00,
2013-05-24 01:01:00,44.2,42.6,30.00,NW,323,0.0,1.0,94,0.00,,,0.00,0.0,meteohub,2013-05-24 08:01:00,
2013-05-24 01:06:00,44.2,42.6,30.00,NW,323,0.0,1.0,94,0.00,,,0.00,0.0,meteohub,2013-05-24 08:06:00,
2013-05-24 01:11:00,44.1,42.4,30.00,NW,323,0.0,1.0,94,0.00,,,0.00,0.0,meteohub,2013-05-24 08:11:00,
2013-05-24 01:16:00,44.1,42.4,30.00,NW,323,0.0,1.0,94,0.00,,,0.00,0.0,meteohub,2013-05-24 08:16:00,
2013-05-24 01:21:00,43.9,42.3,30.00,NW,323,0.0,1.0,94,0.00,,,0.00,0.0,meteohub,2013-05-24 08:21:00,
2013-05-24 01:27:00,43.9,42.3,30.00,NW,323,2.0,2.0,94,0.00,,,0.00,0.0,meteohub,2013-05-24 08:27:00,
2013-05-24 01:32:00,43.9,42.3,30.00,NW,323,0.0,2.0,94,0.00,,,0.00,0.0,meteohub,2013-05-24 08:32:00,
2013-05-24 01:37:00,43.9,42.3,30.00,NW,323,0.0,2.0,94,0.00,,,0.00,0.0,meteohub,2013-05-24 08:37:00,
2013-05-24 01:42:00,43.9,42.3,30.00,NW,323,0.0,2.0,94,0.00,,,0.00,0.0,meteohub,2013-05-24 08:42:00,
2013-05-24 01:47:00,43.9,42.3,30.00,NW,323,0.0,1.0,94,0.00,,,0.00,0.0,meteohub,2013-05-24 08:47:00,
2013-05-24 01:52:00,43.5,41.9,30.00,WNW,295,2.0,2.0,94,0.00,,,0.00,0.0,meteohub,2013-05-24 08:52:00,
2013-05-24 01:57:00,43.5,41.9,30.00,WNW,295,0.0,5.0,94,0.00,,,0.00,0.0,meteohub,2013-05-24 08:57:00,
2013-05-24 02:02:00,43.5,41.9,30.00,WNW,295,1.0,5.0,94,0.00,,,0.00,0.0,meteohub,2013-05-24 09:02:00,
2013-05-24 02:07:00,43.5,41.9,30.00,WNW,295,0.0,5.0,94,0.00,,,0.00,0.0,meteohub,2013-05-24 09:07:00,
2013-05-24 02:12:00,43.5,42.3,29.99,WNW,295,0.0,3.0,95,0.00,,,0.00,0.0,meteohub,2013-05-24 09:12:00,
2013-05-24 02:17:00,43.3,42.1,29.99,WNW,295,1.0,3.0,95,0.00,,,0.00,0.0,meteohub,2013-05-24 09:17:00,
2013-05-24 02:22:00,43.2,41.9,29.99,WNW,295,2.0,3.0,95,0.00,,,0.00,0.0,meteohub,2013-05-24 09:22:00,
2013-05-24 02:27:00,43.2,41.9,30.00,WNW,295,1.0,3.0,95,0.00,,,0.00,0.0,meteohub,2013-05-24 09:27:00,
2013-05-24 02:32:00,43.2,41.9,30.00,WNW,295,0.0,2.0,95,0.00,,,0.00,0.0,meteohub,2013-05-24 09:32:00,
2013-05-24 02:37:00,43.2,41.9,30.00,WNW,295,0.0,2.0,95,0.00,,,0.00,0.0,meteohub,2013-05-24 09:37:00,
2013-05-24 02:42:00,43.2,41.9,30.00,WNW,295,0.0,2.0,95,0.00,,,0.00,0.0,meteohub,2013-05-24 09:42:00,
2013-05-24 02:47:00,43.0,41.7,30.00,WNW,295,0.0,1.0,95,0.00,,,0.00,0.0,meteohub,2013-05-24 09:47:00,
2013-05-24 02:52:00,43.0,41.7,30.00,WNW,295,0.0,1.0,95,0.00,,,0.00,0.0,meteohub,2013-05-24 09:52:00,
2013-05-24 02:57:00,42.8,41.5,29.99,WNW,295,0.0,1.0,95,0.00,,,0.00,0.0,meteohub,2013-05-24 09:57:00,
2013-05-24 03:02:00,42.8,41.5,30.00,WNW,295,0.0,1.0,95,0.00,,,0.00,0.0,meteohub,2013-05-24 10:02:00,
2013-05-24 03:07:00,42.8,41.5,29.99,WNW,295,0.0,1.0,95,0.00,,,0.00,0.0,meteohub,2013-05-24 10:07:00,
2013-05-24 03:12:00,42.6,41.4,29.99,WNW,295,0.0,1.0,95,0.00,,,0.00,0.0,meteohub,2013-05-24 10:12:00,
2013-05-24 03:17:00,42.6,41.4,29.99,WNW,295,1.0,1.0,95,0.00,,,0.00,0.0,meteohub,2013-05-24 10:17:00,
2013-05-24 03:22:00,42.3,41.0,29.99,WNW,295,0.0,2.0,95,0.00,,,0.00,0.0,meteohub,2013-05-24 10:22:00,
2013-05-24 03:27:00,42.3,41.0,29.99,WNW,295,0.0,2.0,95,0.00,,,0.00,0.0,meteohub,2013-05-24 10:27:00,
2013-05-24 03:32:00,42.3,41.0,29.99,WNW,295,0.0,2.0,95,0.00,,,0.00,0.0,meteohub,2013-05-24 10:32:00,
2013-05-24 03:37:00,42.3,41.0,29.99,WNW,295,0.0,1.0,95,0.00,,,0.00,0.0,meteohub,2013-05-24 10:37:00,
2013-05-24 03:42:00,42.3,41.0,29.99,WNW,295,0.0,2.0,95,0.00,,,0.00,0.0,meteohub,2013-05-24 10:42:00,
2013-05-24 03:47:00,42.1,40.8,29.99,WNW,295,0.0,2.0,95,0.00,,,0.00,0.0,meteohub,2013-05-24 10:47:00,
2013-05-24 03:52:00,42.1,40.8,29.99,WNW,295,0.0,1.0,95,0.00,,,0.00,0.0,meteohub,2013-05-24 10:52:00,
2013-05-24 03:57:00,41.9,40.6,29.99,WNW,295,0.0,2.0,95,0.00,,,0.00,0.0,meteohub,2013-05-24 10:57:00,
2013-05-24 04:02:00,41.9,40.6,29.99,WNW,295,0.0,2.0,95,0.00,,,0.00,0.0,meteohub,2013-05-24 11:02:00,
2013-05-24 04:07:00,41.7,40.5,29.99,WNW,295,0.0,0.0,95,0.00,,,0.00,0.0,meteohub,2013-05-24 11:07:00,
2013-05-24 04:12:00,41.5,40.3,29.99,WNW,295,0.0,1.0,95,0.00,,,0.00,0.0,meteohub,2013-05-24 11:12:00,
2013-05-24 04:17:00,41.5,40.3,29.99,WNW,295,0.0,1.0,95,0.00,,,0.00,0.0,meteohub,2013-05-24 11:17:00,
2013-05-24 04:22:00,41.5,40.3,29.99,WNW,295,0.0,1.0,95,0.00,,,0.00,0.0,meteohub,2013-05-24 11:22:00,
2013-05-24 04:27:00,41.5,40.3,29.99,WNW,295,1.0,1.0,95,0.00,,,0.00,0.0,meteohub,2013-05-24 11:27:00,
2013-05-24 04:32:00,41.4,40.1,30.00,WNW,295,0.0,2.0,95,0.00,,,0.00,0.0,meteohub,2013-05-24 11:32:00,
2013-05-24 04:37:00,41.4,40.1,29.99,WNW,295,1.0,2.0,95,0.00,,,0.00,0.0,meteohub,2013-05-24 11:37:00,
2013-05-24 04:42:00,41.2,39.9,29.99,WNW,295,1.0,2.0,95,0.00,,,0.00,0.0,meteohub,2013-05-24 11:42:00,
2013-05-24 04:47:00,41.2,39.9,30.00,WNW,295,0.0,3.0,95,0.00,,,0.00,0.0,meteohub,2013-05-24 11:47:00,
2013-05-24 04:52:00,41.2,39.9,30.00,WNW,295,0.0,3.0,95,0.00,,,0.00,0.0,meteohub,2013-05-24 11:52:00,
2013-05-24 04:57:00,41.2,39.9,30.00,WNW,295,0.0,3.0,95,0.00,,,0.00,0.0,meteohub,2013-05-24 11:57:00,
2013-05-24 05:02:00,41.2,39.9,30.00,WNW,295,0.0,2.0,95,0.00,,,0.00,0.0,meteohub,2013-05-24 12:02:00,
2013-05-24 05:07:00,41.2,39.9,30.00,WNW,295,0.0,1.0,95,0.00,,,0.00,0.0,meteohub,2013-05-24 12:07:00,
2013-05-24 05:12:00,41.2,40.1,30.00,WNW,295,0.0,1.0,96,0.00,,,0.00,0.0,meteohub,2013-05-24 12:12:00,
2013-05-24 05:17:00,41.2,40.1,30.00,WNW,295,0.0,2.0,96,0.00,,,0.00,0.0,meteohub,2013-05-24 12:17:00,
2013-05-24 05:22:00,41.4,40.3,30.00,WNW,295,0.0,2.0,96,0.00,,,0.00,5.0,meteohub,2013-05-24 12:22:00,
2013-05-24 05:27:00,41.4,40.3,30.00,WNW,295,0.0,2.0,96,0.00,,,0.00,5.0,meteohub,2013-05-24 12:27:00,
2013-05-24 05:32:00,41.4,40.3,30.00,WNW,295,0.0,2.0,96,0.00,,,0.00,7.0,meteohub,2013-05-24 12:32:00,
2013-05-24 05:37:00,41.4,40.3,30.00,WNW,295,0.0,1.0,96,0.00,,,0.00,7.0,meteohub,2013-05-24 12:37:00,
2013-05-24 05:42:00,41.5,40.5,30.00,WNW,295,0.0,1.0,96,0.00,,,0.00,9.0,meteohub,2013-05-24 12:42:00,
2013-05-24 05:47:00,41.5,40.5,30.00,WNW,295,0.0,1.0,96,0.00,,,0.00,12.0,meteohub,2013-05-24 12:47:00,
2013-05-24 05:52:00,41.5,40.5,30.00,WNW,295,0.0,1.0,96,0.00,,,0.00,19.0,meteohub,2013-05-24 12:52:00,
2013-05-24 05:57:00,41.7,41.0,30.00,WNW,295,1.0,2.0,97,0.00,,,0.00,25.0,meteohub,2013-05-24 12:57:00,
2013-05-24 06:02:00,41.7,41.0,30.00,WNW,295,1.0,2.0,97,0.00,,,0.00,30.0,meteohub,2013-05-24 13:02:00,
2013-05-24 06:07:00,41.9,41.2,30.00,WNW,295,1.0,2.0,97,0.00,,,0.00,30.0,meteohub,2013-05-24 13:07:00,
2013-05-24 06:12:00,42.1,41.4,30.00,WNW,295,0.0,2.0,97,0.00,,,0.00,35.0,meteohub,2013-05-24 13:12:00,
2013-05-24 06:17:00,42.3,41.5,30.00,WNW,295,0.0,2.0,97,0.00,,,0.00,42.0,meteohub,2013-05-24 13:17:00,
2013-05-24 06:22:00,42.3,41.5,30.00,WNW,295,0.0,2.0,97,0.00,,,0.00,53.0,meteohub,2013-05-24 13:22:00,
2013-05-24 06:27:00,42.6,41.9,30.00,WNW,295,0.0,2.0,97,0.00,,,0.00,69.0,meteohub,2013-05-24 13:27:00,
2013-05-24 06:32:00,42.8,42.1,30.00,NW,307,1.0,2.0,97,0.00,,,0.00,70.0,meteohub,2013-05-24 13:32:00,
2013-05-24 06:37:00,43.0,42.3,30.00,WNW,293,1.0,1.0,97,0.00,,,0.00,67.0,meteohub,2013-05-24 13:37:00,
2013-05-24 06:43:00,43.0,42.3,30.00,West,273,0.0,3.0,97,0.00,,,0.00,63.0,meteohub,2013-05-24 13:43:00,
2013-05-24 06:48:00,43.2,42.4,30.00,West,273,0.0,3.0,97,0.00,,,0.00,54.0,meteohub,2013-05-24 13:48:00,
2013-05-24 06:53:00,43.2,42.4,30.00,West,273,2.0,3.0,97,0.00,,,0.00,49.0,meteohub,2013-05-24 13:53:00,
2013-05-24 06:58:00,43.2,42.1,30.00,West,273,1.0,4.0,96,0.00,,,0.00,44.0,meteohub,2013-05-24 13:58:00,
2013-05-24 07:03:00,43.3,42.3,29.99,West,273,0.0,4.0,96,0.00,,,0.00,37.0,meteohub,2013-05-24 14:03:00,
2013-05-24 07:08:00,43.3,42.3,29.99,West,273,0.0,4.0,96,0.00,,,0.00,33.0,meteohub,2013-05-24 14:08:00,
2013-05-24 07:13:00,43.3,42.3,30.00,West,273,0.0,2.0,96,0.00,,,0.00,30.0,meteohub,2013-05-24 14:13:00,
2013-05-24 07:18:00,43.3,42.1,29.99,West,273,0.0,1.0,95,0.00,,,0.00,28.0,meteohub,2013-05-24 14:18:00,
2013-05-24 07:23:00,43.5,42.3,30.00,West,273,1.0,1.0,95,0.00,,,0.00,28.0,meteohub,2013-05-24 14:23:00,
2013-05-24 07:28:00,43.3,42.1,30.00,West,273,0.0,1.0,95,0.00,,,0.00,93.0,meteohub,2013-05-24 14:28:00,
2013-05-24 07:33:00,43.3,42.1,29.99,West,273,0.0,1.0,95,0.00,,,0.00,253.0,meteohub,2013-05-24 14:33:00,
2013-05-24 07:38:00,43.5,42.3,29.99,West,259,0.0,1.0,95,0.00,,,0.00,281.0,meteohub,2013-05-24 14:38:00,
2013-05-24 07:43:00,43.9,42.6,30.00,SSW,196,0.0,1.0,95,0.00,,,0.00,292.0,meteohub,2013-05-24 14:43:00,
2013-05-24 07:48:00,44.1,42.4,30.00,SSW,196,0.0,1.0,94,0.00,,,0.00,297.0,meteohub,2013-05-24 14:48:00,
2013-05-24 07:53:00,44.6,43.0,29.99,SSW,196,0.0,1.0,94,0.00,,,0.00,288.0,meteohub,2013-05-24 14:53:00,
2013-05-24 07:58:00,45.0,43.0,30.00,SW,233,1.0,1.0,93,0.00,,,0.00,294.0,meteohub,2013-05-24 14:58:00,
2013-05-24 08:03:00,45.3,43.2,29.99,WSW,239,0.0,2.0,92,0.00,,,0.00,346.0,meteohub,2013-05-24 15:03:00,
2013-05-24 08:08:00,45.7,43.0,29.99,SSE,167,2.0,2.0,90,0.00,,,0.00,330.0,meteohub,2013-05-24 15:08:00,
2013-05-24 08:13:00,46.0,42.6,29.99,SSE,167,0.0,3.0,88,0.00,,,0.00,248.0,meteohub,2013-05-24 15:13:00,
2013-05-24 08:18:00,46.9,43.3,29.99,SSE,167,1.0,3.0,87,0.00,,,0.00,374.0,meteohub,2013-05-24 15:18:00,
2013-05-24 08:23:00,48.2,43.3,29.99,SSE,167,0.0,3.0,83,0.00,,,0.00,385.0,meteohub,2013-05-24 15:23:00,
2013-05-24 08:28:00,48.0,43.7,29.99,SSE,167,2.0,2.0,85,0.00,,,0.00,380.0,meteohub,2013-05-24 15:28:00,
2013-05-24 08:33:00,48.4,44.8,29.99,South,169,0.0,1.0,87,0.00,,,0.00,415.0,meteohub,2013-05-24 15:33:00,
2013-05-24 08:38:00,48.4,44.4,29.99,South,169,0.0,2.0,86,0.00,,,0.00,213.0,meteohub,2013-05-24 15:38:00,
2013-05-24 08:43:00,48.6,43.3,29.99,South,169,1.0,2.0,82,0.00,,,0.00,410.0,meteohub,2013-05-24 15:43:00,
2013-05-24 08:48:00,49.3,43.3,29.99,South,169,1.0,2.0,80,0.00,,,0.00,323.0,meteohub,2013-05-24 15:48:00,
2013-05-24 08:53:00,50.2,44.2,29.99,South,190,2.0,3.0,80,0.00,,,0.00,543.0,meteohub,2013-05-24 15:53:00,
2013-05-24 08:58:00,52.2,43.7,29.99,SSW,193,1.0,3.0,73,0.00,,,0.00,550.0,meteohub,2013-05-24 15:58:00,
2013-05-24 09:03:00,53.2,43.3,29.99,WNW,289,2.0,3.0,69,0.00,,,0.00,541.0,meteohub,2013-05-24 16:03:00,
2013-05-24 09:08:00,52.5,43.0,29.99,WNW,289,0.0,4.0,70,0.00,,,0.00,548.0,meteohub,2013-05-24 16:08:00,
2013-05-24 09:13:00,54.0,44.1,29.99,West,271,0.0,4.0,69,0.00,,,0.00,571.0,meteohub,2013-05-24 16:13:00,
2013-05-24 09:19:00,55.6,44.8,29.98,West,271,2.0,3.0,67,0.00,,,0.00,608.0,meteohub,2013-05-24 16:19:00,
2013-05-24 09:24:00,55.9,45.1,29.98,WNW,294,1.0,4.0,67,0.00,,,0.00,652.0,meteohub,2013-05-24 16:24:00,
2013-05-24 09:29:00,57.0,44.6,29.98,WNW,294,0.0,4.0,63,0.00,,,0.00,693.0,meteohub,2013-05-24 16:29:00,
2013-05-24 09:34:00,55.6,44.4,29.98,West,262,0.0,4.0,66,0.00,,,0.00,664.0,meteohub,2013-05-24 16:34:00,
2013-05-24 09:39:00,55.4,45.3,29.98,West,262,1.0,4.0,69,0.00,,,0.00,779.0,meteohub,2013-05-24 16:39:00,
2013-05-24 09:44:00,56.8,44.4,29.98,WNW,282,3.0,4.0,63,0.00,,,0.00,274.0,meteohub,2013-05-24 16:44:00,
2013-05-24 09:49:00,57.0,44.1,29.98,WNW,286,5.0,8.0,62,0.00,,,0.00,675.0,meteohub,2013-05-24 16:49:00,
2013-05-24 09:54:00,57.2,44.8,29.98,WNW,288,1.0,8.0,63,0.00,,,0.00,788.0,meteohub,2013-05-24 16:54:00,
2013-05-24 09:59:00,58.1,44.2,29.97,WNW,283,1.0,8.0,60,0.00,,,0.00,768.0,meteohub,2013-05-24 16:59:00,
2013-05-24 10:04:00,58.3,45.0,29.97,NW,315,6.0,7.0,61,0.00,,,0.00,770.0,meteohub,2013-05-24 17:04:00,
2013-05-24 10:09:00,58.1,45.1,29.97,West,279,1.0,7.0,62,0.00,,,0.00,772.0,meteohub,2013-05-24 17:09:00,
2013-05-24 10:14:00,57.9,44.1,29.97,West,279,2.0,7.0,60,0.00,,,0.00,793.0,meteohub,2013-05-24 17:14:00,
2013-05-24 10:19:00,59.0,44.8,29.98,NW,316,3.0,7.0,59,0.00,,,0.00,812.0,meteohub,2013-05-24 17:19:00,
2013-05-24 10:24:00,59.4,44.6,29.97,WNW,297,4.0,7.0,58,0.00,,,0.00,849.0,meteohub,2013-05-24 17:24:00,
2013-05-24 10:29:00,58.8,45.0,29.97,NNW,330,3.0,8.0,60,0.00,,,0.00,870.0,meteohub,2013-05-24 17:29:00,
2013-05-24 10:34:00,58.6,44.8,29.97,NW,324,1.0,8.0,60,0.00,,,0.00,169.0,meteohub,2013-05-24 17:34:00,
2013-05-24 10:39:00,57.6,44.2,29.97,NW,312,3.0,7.0,61,0.00,,,0.00,171.0,meteohub,2013-05-24 17:39:00,
2013-05-24 10:44:00,56.7,43.3,29.97,NW,314,1.0,7.0,61,0.00,,,0.00,165.0,meteohub,2013-05-24 17:44:00,
2013-05-24 10:49:00,56.3,44.2,29.97,NW,314,0.0,5.0,64,0.00,,,0.00,160.0,meteohub,2013-05-24 17:49:00,
2013-05-24 10:54:00,55.9,43.5,29.97,NW,314,1.0,5.0,63,0.00,,,0.00,169.0,meteohub,2013-05-24 17:54:00,
2013-05-24 10:59:00,55.9,43.9,29.97,NW,314,0.0,4.0,64,0.00,,,0.00,190.0,meteohub,2013-05-24 17:59:00,
2013-05-24 11:04:00,55.9,43.9,29.97,NW,314,2.0,3.0,64,0.00,,,0.00,243.0,meteohub,2013-05-24 18:04:00,
2013-05-24 11:09:00,56.1,44.1,29.97,NW,321,1.0,3.0,64,0.00,,,0.00,234.0,meteohub,2013-05-24 18:09:00,
2013-05-24 11:14:00,55.6,44.1,29.96,NW,315,1.0,4.0,65,0.00,,,0.00,206.0,meteohub,2013-05-24 18:14:00,
2013-05-24 11:19:00,57.0,46.2,29.96,WNW,296,0.0,4.0,67,0.00,,,0.00,916.0,meteohub,2013-05-24 18:19:00,
2013-05-24 11:24:00,57.4,44.1,29.96,SW,220,4.0,4.0,61,0.00,,,0.00,926.0,meteohub,2013-05-24 18:24:00,
2013-05-24 11:29:00,57.6,45.1,29.96,South,180,1.0,6.0,63,0.00,,,0.00,951.0,meteohub,2013-05-24 18:29:00,
2013-05-24 11:34:00,57.9,44.6,29.96,SSW,194,5.0,6.0,61,0.00,,,0.00,956.0,meteohub,2013-05-24 18:34:00,
2013-05-24 11:39:00,58.8,42.3,29.96,SW,222,0.0,6.0,54,0.00,,,0.00,960.0,meteohub,2013-05-24 18:39:00,
2013-05-24 11:44:00,61.2,43.9,29.96,SW,232,1.0,6.0,53,0.00,,,0.00,956.0,meteohub,2013-05-24 18:44:00,
2013-05-24 11:50:00,61.0,43.7,29.95,SE,140,0.0,6.0,53,0.00,,,0.00,969.0,meteohub,2013-05-24 18:50:00,
2013-05-24 11:55:00,62.2,44.4,29.95,WNW,287,3.0,6.0,52,0.00,,,0.00,988.0,meteohub,2013-05-24 18:55:00,
2013-05-24 12:00:00,64.0,44.4,29.95,WSW,244,2.0,11.0,49,0.00,,,0.00,1014.0,meteohub,2013-05-24 19:00:00,
2013-05-24 12:05:00,64.8,45.1,29.95,WNW,286,3.0,11.0,49,0.00,,,0.00,1048.0,meteohub,2013-05-24 19:05:00,
2013-05-24 12:10:00,65.7,45.5,29.95,West,277,4.0,11.0,48,0.00,,,0.00,1028.0,meteohub,2013-05-24 19:10:00,
2013-05-24 12:15:00,65.3,45.1,29.94,West,281,6.0,11.0,48,0.00,,,0.00,758.0,meteohub,2013-05-24 19:15:00,
2013-05-24 12:20:00,64.8,45.1,29.94,WNW,288,6.0,11.0,49,0.00,,,0.00,1078.0,meteohub,2013-05-24 19:20:00,
2013-05-24 12:25:00,65.5,45.3,29.94,WSW,242,2.0,12.0,48,0.00,,,0.00,1065.0,meteohub,2013-05-24 19:25:00,
2013-05-24 12:30:00,66.4,46.0,29.94,WNW,288,6.0,12.0,48,0.00,,,0.00,1085.0,meteohub,2013-05-24 19:30:00,
2013-05-24 12:35:00,66.0,44.1,29.94,WNW,288,8.0,12.0,45,0.00,,,0.00,336.0,meteohub,2013-05-24 19:35:00,
2013-05-24 12:40:00,65.8,45.7,29.94,WNW,284,1.0,13.0,48,0.00,,,0.00,1109.0,meteohub,2013-05-24 19:40:00,
2013-05-24 12:45:00,65.8,45.7,29.94,NW,304,2.0,13.0,48,0.00,,,0.00,1109.0,meteohub,2013-05-24 19:45:00,
2013-05-24 12:50:00,66.6,45.1,29.93,NW,304,8.0,14.0,46,0.00,,,0.00,1130.0,meteohub,2013-05-24 19:50:00,
2013-05-24 12:55:00,67.1,44.4,29.94,WSW,257,3.0,18.0,44,0.00,,,0.00,1085.0,meteohub,2013-05-24 19:55:00,
2013-05-24 13:00:00,66.7,45.9,29.93,WSW,244,4.0,18.0,47,0.00,,,0.00,1104.0,meteohub,2013-05-24 20:00:00,
2013-05-24 13:05:00,67.5,46.6,29.93,NW,317,4.0,18.0,47,0.00,,,0.00,1114.0,meteohub,2013-05-24 20:05:00,
2013-05-24 13:10:00,67.6,45.5,29.93,WSW,246,12.0,16.0,45,0.00,,,0.00,1088.0,meteohub,2013-05-24 20:10:00,
2013-05-24 13:15:00,67.1,46.2,29.93,WNW,300,3.0,17.0,47,0.00,,,0.00,1039.0,meteohub,2013-05-24 20:15:00,
2013-05-24 13:20:00,67.1,45.0,29.93,West,269,11.0,17.0,45,0.00,,,0.00,1055.0,meteohub,2013-05-24 20:20:00,
2013-05-24 13:25:00,66.9,45.0,29.93,SW,218,10.0,18.0,45,0.00,,,0.00,1044.0,meteohub,2013-05-24 20:25:00,
2013-05-24 13:30:00,66.6,44.6,29.93,NW,312,6.0,18.0,45,0.00,,,0.00,1074.0,meteohub,2013-05-24 20:30:00,
2013-05-24 13:35:00,66.4,45.5,29.93,West,269,11.0,18.0,47,0.00,,,0.00,1111.0,meteohub,2013-05-24 20:35:00,
2013-05-24 13:40:00,65.8,45.7,29.94,WNW,288,7.0,18.0,48,0.00,,,0.00,1097.0,meteohub,2013-05-24 20:40:00,
2013-05-24 13:45:00,66.0,44.1,29.93,WNW,284,9.0,18.0,45,0.00,,,0.00,1086.0,meteohub,2013-05-24 20:45:00,
2013-05-24 13:50:00,65.5,43.0,29.93,West,276,7.0,18.0,44,0.00,,,0.00,1060.0,meteohub,2013-05-24 20:50:00,
2013-05-24 13:55:00,66.4,43.9,29.94,WNW,286,1.0,22.0,44,0.00,,,0.00,1023.0,meteohub,2013-05-24 20:55:00,
2013-05-24 14:00:00,67.5,41.7,29.94,NW,323,5.0,22.0,39,0.00,,,0.00,1062.0,meteohub,2013-05-24 21:00:00,
2013-05-24 14:05:00,67.1,41.9,29.94,WSW,241,2.0,19.0,40,0.00,,,0.00,1113.0,meteohub,2013-05-24 21:05:00,
2013-05-24 14:10:00,67.3,43.3,29.94,West,263,12.0,19.0,42,0.00,,,0.00,1076.0,meteohub,2013-05-24 21:10:00,
2013-05-24 14:15:00,67.8,43.9,29.94,NNW,348,5.0,19.0,42,0.00,,,0.00,1037.0,meteohub,2013-05-24 21:15:00,
2013-05-24 14:20:00,67.8,46.2,29.94,West,263,3.0,18.0,46,0.00,,,0.00,1009.0,meteohub,2013-05-24 21:20:00,
2013-05-24 14:26:00,67.6,45.5,29.94,WNW,286,2.0,16.0,45,0.00,,,0.00,986.0,meteohub,2013-05-24 21:26:00,
2013-05-24 14:31:00,67.8,46.9,29.94,NW,309,6.0,13.0,47,0.00,,,0.00,983.0,meteohub,2013-05-24 21:31:00,
2013-05-24 14:36:00,67.8,45.1,29.94,NW,324,5.0,15.0,44,0.00,,,0.00,1030.0,meteohub,2013-05-24 21:36:00,
2013-05-24 14:41:00,67.8,44.4,29.94,SW,234,3.0,15.0,43,0.00,,,0.00,937.0,meteohub,2013-05-24 21:41:00,
2013-05-24 14:46:00,67.8,42.6,29.94,West,281,1.0,15.0,40,0.00,,,0.00,983.0,meteohub,2013-05-24 21:46:00,
2013-05-24 14:51:00,67.6,47.3,29.94,NW,305,3.0,14.0,48,0.00,,,0.00,1067.0,meteohub,2013-05-24 21:51:00,
2013-05-24 14:56:00,67.1,46.8,29.95,West,265,11.0,14.0,48,0.00,,,0.00,281.0,meteohub,2013-05-24 21:56:00,
2013-05-24 15:01:00,65.1,44.4,29.96,NW,318,7.0,17.0,47,0.00,,,0.00,306.0,meteohub,2013-05-24 22:01:00,
2013-05-24 15:06:00,63.1,44.2,29.96,South,177,2.0,17.0,50,0.00,,,0.00,1058.0,meteohub,2013-05-24 22:06:00,
2013-05-24 15:11:00,62.8,45.3,29.96,WNW,302,4.0,19.0,53,0.00,,,0.00,596.0,meteohub,2013-05-24 22:11:00,
2013-05-24 15:16:00,62.1,43.7,29.96,West,278,8.0,19.0,51,0.00,,,0.00,371.0,meteohub,2013-05-24 22:16:00,
2013-05-24 15:21:00,62.1,45.7,29.97,NW,317,12.0,19.0,55,0.00,,,0.00,1113.0,meteohub,2013-05-24 22:21:00,
2013-05-24 15:26:00,62.1,47.1,29.97,WNW,296,5.0,18.0,58,0.00,,,0.00,348.0,meteohub,2013-05-24 22:26:00,
2013-05-24 15:31:00,61.5,46.2,29.97,West,264,6.0,18.0,57,0.00,,,0.00,469.0,meteohub,2013-05-24 22:31:00,
2013-05-24 15:36:00,61.2,43.0,29.97,NW,305,2.0,18.0,51,0.00,,,0.00,301.0,meteohub,2013-05-24 22:36:00,
2013-05-24 15:41:00,61.0,45.1,29.98,WSW,246,5.0,17.0,56,0.00,,,0.00,243.0,meteohub,2013-05-24 22:41:00,
2013-05-24 15:46:00,60.4,44.6,29.98,WNW,288,9.0,17.0,56,0.00,,,0.00,241.0,meteohub,2013-05-24 22:46:00,
2013-05-24 15:51:00,60.1,44.8,29.99,NW,310,7.0,15.0,57,0.00,,,0.00,216.0,meteohub,2013-05-24 22:51:00,
2013-05-24 15:56:00,59.9,45.1,29.99,NW,305,2.0,14.0,58,0.00,,,0.00,188.0,meteohub,2013-05-24 22:56:00,
2013-05-24 16:01:00,59.7,46.2,29.99,WSW,242,2.0,14.0,61,0.00,,,0.00,183.0,meteohub,2013-05-24 23:01:00,
2013-05-24 16:06:00,59.2,46.2,29.99,SW,227,4.0,14.0,62,0.00,,,0.00,190.0,meteohub,2013-05-24 23:06:00,
2013-05-24 16:11:00,58.1,47.7,29.99,SW,232,6.0,11.0,68,0.00,,,0.00,214.0,meteohub,2013-05-24 23:11:00,
2013-05-24 16:16:00,57.6,48.2,30.00,SW,236,2.0,9.0,71,0.00,,,0.00,190.0,meteohub,2013-05-24 23:16:00,
2013-05-24 16:21:00,57.6,48.9,30.00,West,273,4.0,9.0,73,0.00,,,0.00,204.0,meteohub,2013-05-24 23:21:00,
2013-05-24 16:26:00,57.4,49.1,30.00,WSW,257,1.0,9.0,74,0.00,,,0.00,186.0,meteohub,2013-05-24 23:26:00,
2013-05-24 16:31:00,57.6,49.3,30.01,West,271,1.0,6.0,74,0.00,,,0.00,158.0,meteohub,2013-05-24 23:31:00,
2013-05-24 16:36:00,57.7,50.2,30.01,West,278,4.0,5.0,76,0.00,,,0.00,151.0,meteohub,2013-05-24 23:36:00,
2013-05-24 16:41:00,57.6,50.0,30.01,WNW,283,3.0,7.0,76,0.00,,,0.00,155.0,meteohub,2013-05-24 23:41:00,
2013-05-24 16:46:00,57.6,48.9,30.01,WNW,283,2.0,7.0,73,0.00,,,0.00,178.0,meteohub,2013-05-24 23:46:00,
2013-05-24 16:51:00,57.4,49.1,30.01,WNW,283,1.0,7.0,74,0.00,,,0.00,188.0,meteohub,2013-05-24 23:51:00,
2013-05-24 16:56:00,57.0,49.1,30.01,WSW,252,5.0,5.0,75,0.00,,,0.00,149.0,meteohub,2013-05-24 23:56:00,
2013-05-24 17:01:00,56.5,48.0,30.02,WSW,246,1.0,6.0,73,0.00,,,0.00,109.0,meteohub,2013-05-25 00:01:00,
2013-05-24 17:06:00,56.3,49.1,30.02,WNW,288,1.0,6.0,77,0.00,,,0.00,90.0,meteohub,2013-05-25 00:06:00,
2013-05-24 17:12:00,56.3,49.5,30.02,WNW,288,3.0,6.0,78,0.00,,,0.00,95.0,meteohub,2013-05-25 00:12:00,
2013-05-24 17:17:00,56.3,49.1,30.03,WNW,286,0.0,5.0,77,0.00,,,0.00,111.0,meteohub,2013-05-25 00:17:00,
2013-05-24 17:22:00,55.9,48.9,30.02,WSW,239,4.0,5.0,77,0.00,,,0.00,162.0,meteohub,2013-05-25 00:22:00,
2013-05-24 17:27:00,55.6,48.9,30.03,SW,217,9.0,14.0,78,0.00,,,0.00,144.0,meteohub,2013-05-25 00:27:00,
2013-05-24 17:32:00,55.0,48.0,30.03,SSW,212,1.0,14.0,77,0.00,,,0.00,116.0,meteohub,2013-05-25 00:32:00,
2013-05-24 17:37:00,55.0,48.4,30.03,SSE,153,4.0,14.0,78,0.00,,,0.00,95.0,meteohub,2013-05-25 00:37:00,
2013-05-24 17:42:00,54.9,48.2,30.03,ENE,73,3.0,14.0,78,0.00,,,0.00,76.0,meteohub,2013-05-25 00:42:00,
2013-05-24 17:47:00,55.0,47.7,30.03,SW,236,6.0,9.0,76,0.00,,,0.00,79.0,meteohub,2013-05-25 00:47:00,
2013-05-24 17:52:00,55.0,48.6,30.03,West,272,4.0,9.0,79,0.00,,,0.00,72.0,meteohub,2013-05-25 00:52:00,
2013-05-24 17:57:00,55.2,47.5,30.03,WNW,298,2.0,9.0,75,0.00,,,0.00,76.0,meteohub,2013-05-25 00:57:00,
2013-05-24 18:02:00,55.2,47.1,30.03,WSW,242,5.0,10.0,74,0.00,,,0.00,70.0,meteohub,2013-05-25 01:02:00,
2013-05-24 18:07:00,55.4,47.7,30.03,SSW,211,4.0,11.0,75,0.00,,,0.00,72.0,meteohub,2013-05-25 01:07:00,
2013-05-24 18:12:00,55.4,48.0,30.03,ESE,106,0.0,11.0,76,0.00,,,0.00,83.0,meteohub,2013-05-25 01:12:00,
2013-05-24 18:17:00,55.6,48.6,30.03,WNW,294,3.0,9.0,77,0.00,,,0.00,93.0,meteohub,2013-05-25 01:17:00,
2013-05-24 18:22:00,55.6,48.6,30.03,WNW,301,3.0,9.0,77,0.00,,,0.00,105.0,meteohub,2013-05-25 01:22:00,
2013-05-24 18:27:00,55.8,48.9,30.03,West,279,3.0,5.0,78,0.00,,,0.00,113.0,meteohub,2013-05-25 01:27:00,
2013-05-24 18:32:00,55.6,48.6,30.03,West,275,3.0,6.0,77,0.00,,,0.00,113.0,meteohub,2013-05-25 01:32:00,
2013-05-24 18:37:00,55.8,49.3,30.03,WNW,288,3.0,6.0,79,0.00,,,0.00,98.0,meteohub,2013-05-25 01:37:00,
2013-05-24 18:42:00,55.8,50.0,30.03,WNW,299,0.0,6.0,81,0.00,,,0.00,100.0,meteohub,2013-05-25 01:42:00,
2013-05-24 18:47:00,55.9,50.5,30.03,WNW,299,2.0,6.0,82,0.00,,,0.00,97.0,meteohub,2013-05-25 01:47:00,
2013-05-24 18:52:00,55.9,49.5,30.03,WNW,299,2.0,6.0,79,0.00,,,0.00,100.0,meteohub,2013-05-25 01:52:00,
2013-05-24 18:57:00,55.9,49.5,30.03,WNW,290,1.0,5.0,79,0.00,,,0.00,69.0,meteohub,2013-05-25 01:57:00,
2013-05-24 19:02:00,55.9,49.8,30.03,WNW,290,2.0,5.0,80,0.00,,,0.00,54.0,meteohub,2013-05-25 02:02:00,
2013-05-24 19:07:00,55.9,49.8,30.03,WNW,290,1.0,5.0,80,0.00,,,0.00,58.0,meteohub,2013-05-25 02:07:00,
2013-05-24 19:12:00,55.8,49.6,30.03,WNW,290,0.0,4.0,80,0.00,,,0.00,70.0,meteohub,2013-05-25 02:12:00,
2013-05-24 19:17:00,55.8,49.6,30.03,WNW,290,1.0,3.0,80,0.00,,,0.00,74.0,meteohub,2013-05-25 02:17:00,
2013-05-24 19:22:00,55.8,49.6,30.03,WNW,290,0.0,3.0,80,0.00,,,0.00,62.0,meteohub,2013-05-25 02:22:00,
2013-05-24 19:27:00,55.8,50.0,30.03,WNW,290,0.0,3.0,81,0.00,,,0.00,54.0,meteohub,2013-05-25 02:27:00,
2013-05-24 19:32:00,55.8,50.0,30.03,WNW,290,0.0,3.0,81,0.00,,,0.00,46.0,meteohub,2013-05-25 02:32:00,
2013-05-24 19:37:00,55.6,49.5,30.03,WNW,289,0.0,2.0,80,0.00,,,0.00,49.0,meteohub,2013-05-25 02:37:00,
2013-05-24 19:42:00,55.4,49.3,30.03,WNW,289,2.0,3.0,80,0.00,,,0.00,47.0,meteohub,2013-05-25 02:42:00,
2013-05-24 19:47:00,55.2,49.5,30.03,WNW,289,0.0,3.0,81,0.00,,,0.00,42.0,meteohub,2013-05-25 02:47:00,
2013-05-24 19:52:00,55.0,49.3,30.03,WNW,289,3.0,4.0,81,0.00,,,0.00,37.0,meteohub,2013-05-25 02:52:00,
2013-05-24 19:57:00,54.9,49.1,30.03,West,274,4.0,5.0,81,0.00,,,0.00,35.0,meteohub,2013-05-25 02:57:00,
2013-05-24 20:02:00,54.7,48.9,30.03,West,274,2.0,5.0,81,0.00,,,0.00,28.0,meteohub,2013-05-25 03:02:00,
2013-05-24 20:07:00,54.3,48.6,30.03,WSW,241,2.0,5.0,81,0.00,,,0.00,19.0,meteohub,2013-05-25 03:07:00,
2013-05-24 20:12:00,54.1,48.4,30.03,West,278,2.0,7.0,81,0.00,,,0.00,16.0,meteohub,2013-05-25 03:12:00,
2013-05-24 20:17:00,54.1,48.4,30.03,West,279,0.0,7.0,81,0.00,,,0.00,12.0,meteohub,2013-05-25 03:17:00,
2013-05-24 20:22:00,54.1,48.7,30.03,West,279,0.0,7.0,82,0.00,,,0.00,11.0,meteohub,2013-05-25 03:22:00,
2013-05-24 20:27:00,54.1,48.7,30.03,WNW,296,4.0,5.0,82,0.00,,,0.00,11.0,meteohub,2013-05-25 03:27:00,
2013-05-24 20:32:00,54.1,49.1,30.03,WNW,296,1.0,4.0,83,0.00,,,0.00,9.0,meteohub,2013-05-25 03:32:00,
2013-05-24 20:37:00,54.0,48.6,30.03,WNW,296,2.0,4.0,82,0.00,,,0.00,5.0,meteohub,2013-05-25 03:37:00,
2013-05-24 20:42:00,54.0,48.6,30.03,WNW,296,0.0,4.0,82,0.00,,,0.00,0.0,meteohub,2013-05-25 03:42:00,
2013-05-24 20:47:00,53.8,48.7,30.03,WNW,296,1.0,4.0,83,0.00,,,0.00,0.0,meteohub,2013-05-25 03:47:00,
2013-05-24 20:52:00,53.6,48.6,30.03,WNW,293,1.0,4.0,83,0.00,,,0.00,0.0,meteohub,2013-05-25 03:52:00,
2013-05-24 20:57:00,53.4,48.4,30.03,WNW,293,0.0,4.0,83,0.00,,,0.00,0.0,meteohub,2013-05-25 03:57:00,
2013-05-24 21:01:00,53.2,48.2,30.03,WNW,285,1.0,3.0,83,0.00,,,0.00,0.0,meteohub,2013-05-25 04:01:00,
2013-05-24 21:02:00,53.2,48.6,30.03,WNW,285,0.0,3.0,84,0.00,,,0.00,0.0,meteohub,2013-05-25 04:02:00,
2013-05-24 21:03:00,53.2,48.6,30.03,WNW,288,2.0,3.0,84,0.00,,,0.00,0.0,meteohub,2013-05-25 04:03:00,
2013-05-24 21:04:00,53.2,48.6,30.03,WNW,288,2.0,3.0,84,0.00,,,0.00,0.0,meteohub,2013-05-25 04:04:00,
2013-05-24 21:09:00,53.1,48.4,30.04,WNW,288,3.0,4.0,84,0.00,,,0.00,0.0,meteohub,2013-05-25 04:09:00,
2013-05-24 21:14:00,52.9,48.6,30.04,WNW,288,1.0,4.0,85,0.00,,,0.00,0.0,meteohub,2013-05-25 04:14:00,
2013-05-24 21:19:00,52.9,48.6,30.04,WNW,288,1.0,4.0,85,0.00,,,0.00,0.0,meteohub,2013-05-25 04:19:00,
2013-05-24 21:24:00,52.9,48.2,30.04,WNW,285,4.0,4.0,84,0.00,,,0.00,0.0,meteohub,2013-05-25 04:24:00,
2013-05-24 21:29:00,52.5,47.8,30.04,SW,232,3.0,6.0,84,0.00,,,0.00,0.0,meteohub,2013-05-25 04:29:00,
2013-05-24 21:34:00,52.5,48.2,30.04,West,277,2.0,11.0,85,0.00,,,0.00,0.0,meteohub,2013-05-25 04:34:00,
2013-05-24 21:39:00,52.5,47.8,30.04,WNW,283,3.0,11.0,84,0.00,,,0.00,0.0,meteohub,2013-05-25 04:39:00,
2013-05-24 21:44:00,52.5,47.8,30.04,WNW,285,0.0,10.0,84,0.00,,,0.00,0.0,meteohub,2013-05-25 04:44:00,
2013-05-24 21:49:00,52.5,48.2,30.04,WNW,285,2.0,5.0,85,0.00,,,0.00,0.0,meteohub,2013-05-25 04:49:00,
2013-05-24 21:54:00,52.3,48.0,30.04,NW,309,3.0,5.0,85,0.00,,,0.00,0.0,meteohub,2013-05-25 04:54:00,
2013-05-24 21:59:00,52.3,48.0,30.05,WNW,296,3.0,5.0,85,0.00,,,0.00,0.0,meteohub,2013-05-25 04:59:00,
2013-05-24 22:04:00,52.2,47.8,30.04,WNW,296,1.0,10.0,85,0.00,,,0.00,0.0,meteohub,2013-05-25 05:04:00,
2013-05-24 22:09:00,52.0,47.8,30.05,WNW,296,1.0,10.0,86,0.00,,,0.00,0.0,meteohub,2013-05-25 05:09:00,
2013-05-24 22:14:00,52.0,48.2,30.05,WNW,302,0.0,5.0,87,0.00,,,0.00,0.0,meteohub,2013-05-25 05:14:00,
2013-05-24 22:19:00,51.6,47.8,30.05,NW,308,1.0,4.0,87,0.00,,,0.00,0.0,meteohub,2013-05-25 05:19:00,
2013-05-24 22:24:00,51.6,48.2,30.05,NW,308,2.0,4.0,88,0.00,,,0.00,0.0,meteohub,2013-05-25 05:24:00,
2013-05-24 22:29:00,51.4,48.0,30.05,NW,307,0.0,4.0,88,0.00,,,0.00,0.0,meteohub,2013-05-25 05:29:00,
2013-05-24 22:34:00,51.4,48.0,30.05,NW,307,0.0,4.0,88,0.00,,,0.00,0.0,meteohub,2013-05-25 05:34:00,
2013-05-24 22:40:00,51.4,47.7,30.05,NW,307,0.0,4.0,87,0.00,,,0.00,0.0,meteohub,2013-05-25 05:40:00,
2013-05-24 22:45:00,51.3,47.5,30.05,NW,307,0.0,4.0,87,0.00,,,0.00,0.0,meteohub,2013-05-25 05:45:00,
2013-05-24 22:50:00,51.3,47.8,30.04,NW,307,0.0,4.0,88,0.00,,,0.00,0.0,meteohub,2013-05-25 05:50:00,
2013-05-24 22:55:00,51.1,47.7,30.05,NW,307,0.0,3.0,88,0.00,,,0.00,0.0,meteohub,2013-05-25 05:55:00,
2013-05-24 23:00:00,51.1,47.3,30.05,NW,307,0.0,3.0,87,0.00,,,0.00,0.0,meteohub,2013-05-25 06:00:00,
2013-05-24 23:05:00,50.7,47.3,30.05,NW,307,1.0,2.0,88,0.00,,,0.00,0.0,meteohub,2013-05-25 06:05:00,
2013-05-24 23:10:00,50.5,47.5,30.05,NW,307,0.0,2.0,89,0.00,,,0.00,0.0,meteohub,2013-05-25 06:10:00,
2013-05-24 23:15:00,50.4,47.3,30.05,NW,307,0.0,2.0,89,0.00,,,0.00,0.0,meteohub,2013-05-25 06:15:00,
2013-05-24 23:20:00,50.4,47.3,30.05,NW,307,2.0,2.0,89,0.00,,,0.00,0.0,meteohub,2013-05-25 06:20:00,
2013-05-24 23:25:00,50.2,47.1,30.05,NW,307,0.0,1.0,89,0.00,,,0.00,0.0,meteohub,2013-05-25 06:25:00,
2013-05-24 23:30:00,50.2,47.1,30.05,NW,307,0.0,2.0,89,0.00,,,0.00,0.0,meteohub,2013-05-25 06:30:00,
2013-05-24 23:35:00,50.2,47.1,30.04,NW,307,1.0,2.0,89,0.00,,,0.00,0.0,meteohub,2013-05-25 06:35:00,
2013-05-24 23:40:00,50.4,47.5,30.05,NW,307,0.0,2.0,90,0.00,,,0.00,0.0,meteohub,2013-05-25 06:40:00,
2013-05-24 23:45:00,50.2,47.3,30.05,NW,307,0.0,3.0,90,0.00,,,0.00,0.0,meteohub,2013-05-25 06:45:00,
2013-05-24 23:50:00,50.2,47.3,30.05,NW,307,0.0,3.0,90,0.00,,,0.00,0.0,meteohub,2013-05-25 06:50:00,
2013-05-24 23:55:00,50.2,47.1,30.04,NW,307,0.0,3.0,89,0.00,,,0.00,0.0,meteohub,2013-05-25 06:55:00,